Tropical Cyclones
[Index]
Main Index Home Page Stock Weather Photos Extreme Storms Discussion Storm News and Storm Chasing Reports Tropical Cyclones / Hurricanes / Typhoons Weather Data and Links Wild Fires / Bushfires Weather Observation Techniques Weather Picture Catalogue Tornado Pictures and Reports Stock Video Footage and DVDs for sale
Season 2009-2010 Tropical Cyclone SARAH Track Map
Season 2009-2010 Summaries: [BoM-AU] [JTWC-AU] [JTWC-SIO] [JTWC-SPAC] [JTWC-SH]
<<- Previous TC | JTWC 2009-2010 Season | Next TC ->>

click for intensity scale information  Lat/long Grid: Show Hide

 Date Labels: Show Hide

Joint Typhoon Warning Centre Cyclone Data

Name: SARAH

21 Feb 2010 00:00 UTC to 04 Mar 2010 12:00 UTC

    date/time    lat    long     hPa   cat  kts
2010-02-21 00    7.4   160.0W   1007         20          
2010-02-21 06    8.1   159.2W   1007         20          
2010-02-21 12    9.0   158.6W   1000         30          
2010-02-21 18    9.5   158.2W    996         35          
2010-02-22 00    9.6   158.8W   1000         30          
2010-02-22 06    9.9   159.5W   1004         25          
2010-02-22 12   10.5   159.6W   1004         25          
2010-02-22 18   11.8   160.3W   1007         20          
2010-02-23 00   12.4   160.9W   1007         20          
2010-02-23 06   13.1   160.8W   1007         20          
2010-02-23 12   13.7   161.0W   1007         20          
2010-02-23 18   14.2   161.3W   1007         20          
2010-02-24 00   14.5   161.8W   1007         20          
2010-02-24 06   14.8   162.6W   1007         20          
2010-02-24 12   15.0   163.3W   1007         20          
2010-02-24 18   15.1   163.8W   1007         20          
2010-02-25 00   15.5   163.7W   1007         20          
2010-02-25 06   15.8   163.6W   1004         25          
2010-02-25 12   16.0   163.4W   1004         25          
2010-02-25 18   16.1   163.3W   1004         25          
2010-02-26 00   16.3   163.3W   1000         30          
2010-02-26 06   16.5   163.4W   1000         30          
2010-02-26 12   16.7   163.5W   1000         30          
2010-02-26 18   16.9   163.3W   1000         30          
2010-02-27 00   17.0   163.0W   1000         30          
2010-02-27 06   17.1   162.6W   1000         30          
2010-02-27 12   17.2   162.3W   1000         30          
2010-02-27 18   17.4   162.2W    996         35          
2010-02-28 00   17.2   162.7W    996         35          
2010-02-28 06   17.0   162.9W    996         35          
2010-02-28 12   16.6   162.2W   1000         30          
2010-02-28 18   16.4   161.7W   1004         25          
2010-03-01 00   16.3   161.2W   1004         25          
2010-03-01 06   16.4   160.8W   1004         25          
2010-03-01 12   16.8   160.9W   1004         25          
2010-03-01 18   17.0   161.2W   1004         25          
2010-03-02 00   17.3   161.5W   1004         25          
2010-03-02 06   17.4   162.0W   1004         25          
2010-03-02 12   17.4   162.6W   1004         25          
2010-03-02 18   17.2   162.8W   1004         25          
2010-03-03 00   17.1   163.0W   1004         25          
2010-03-03 06   17.1   163.4W   1004         25          
2010-03-03 12   17.3   164.0W   1004         25          
2010-03-03 18   17.5   164.5W   1004         25          
2010-03-04 00   17.8   164.9W   1004         25          
2010-03-04 06   18.1   165.3W   1004         25          
2010-03-04 12   18.4   165.7W   1004         25          
Winds are 1-min average.

Tropical cyclone tracks developed by Michael Bath using data from the Joint Typhoon Warning Centre Best Tracks and Google Maps.


[Australian Severe Weather index] [Copyright Notice] [Email Contacts] [Search This Site] [Privacy Policy]
Document: tropical_cyclone_sarah.htm Updated: 28 June 2017